createdAt,value
2018-05-29T00:00:20.447Z,17.60
2018-05-29T00:02:48.645Z,17.60
2018-05-29T00:05:16.078Z,17.60
2018-05-29T00:07:43.915Z,17.60
2018-05-29T00:10:11.358Z,17.70
2018-05-29T00:12:38.793Z,17.70
2018-05-29T00:15:06.222Z,17.70
2018-05-29T00:17:33.651Z,17.40
2018-05-29T00:20:01.087Z,17.90
2018-05-29T00:22:28.514Z,17.70
2018-05-29T00:24:56.721Z,17.50
2018-05-29T00:27:24.155Z,17.40
2018-05-29T00:29:51.601Z,17.50
2018-05-29T00:32:20.187Z,17.60
2018-05-29T00:34:48.026Z,17.60
2018-05-29T00:37:15.867Z,17.30
2018-05-29T00:39:43.304Z,17.10
2018-05-29T00:42:10.751Z,16.80
2018-05-29T00:44:38.195Z,17.20
2018-05-29T00:47:06.386Z,16.90
2018-05-29T00:49:33.831Z,16.80
2018-05-29T00:52:02.022Z,16.90
2018-05-29T00:54:29.882Z,16.90
2018-05-29T00:56:57.306Z,17.00
2018-05-29T00:59:24.742Z,16.70
2018-05-29T01:01:52.580Z,17.00
2018-05-29T01:04:20.008Z,17.30
2018-05-29T01:06:47.444Z,16.70
2018-05-29T01:09:14.884Z,17.20
2018-05-29T01:11:42.315Z,16.60
2018-05-29T01:14:10.539Z,16.50
2018-05-29T01:16:37.987Z,16.10
2018-05-29T01:19:05.434Z,16.30
2018-05-29T01:21:33.258Z,16.60
2018-05-29T01:24:00.687Z,16.60
2018-05-29T01:26:28.133Z,15.90
2018-05-29T01:28:55.576Z,16.50
2018-05-29T01:31:23.407Z,16.10
2018-05-29T01:33:51.611Z,16.20
2018-05-29T01:36:19.045Z,16.20
2018-05-29T01:38:47.247Z,16.10
2018-05-29T01:41:14.699Z,16.10
2018-05-29T01:43:42.127Z,15.90
2018-05-29T01:46:09.567Z,15.90
2018-05-29T01:48:37.777Z,15.90
2018-05-29T01:51:05.598Z,15.90
2018-05-29T01:53:33.035Z,15.90
2018-05-29T01:56:00.478Z,15.90
2018-05-29T01:58:27.912Z,15.90
2018-05-29T02:00:55.354Z,15.80
2018-05-29T02:03:23.915Z,15.90
2018-05-29T02:05:52.132Z,15.90
2018-05-29T02:08:20.716Z,15.80
2018-05-29T02:10:48.171Z,16.00
2018-05-29T02:13:15.993Z,15.80
2018-05-29T02:15:43.427Z,15.80
2018-05-29T02:18:10.856Z,15.90
2018-05-29T02:20:38.304Z,16.50
2018-05-29T02:23:05.730Z,15.90
2018-05-29T02:25:33.942Z,15.90
2018-05-29T02:28:01.387Z,16.00
2018-05-29T02:30:28.880Z,16.10
2018-05-29T02:32:56.258Z,15.80
2018-05-29T02:35:24.456Z,15.80
2018-05-29T02:37:51.888Z,15.60
2018-05-29T02:40:20.078Z,15.90
2018-05-29T02:42:47.517Z,16.00
2018-05-29T02:45:15.710Z,15.80
2018-05-29T02:47:43.154Z,15.90
2018-05-29T02:50:10.971Z,15.60
2018-05-29T02:52:38.407Z,15.50
2018-05-29T02:55:06.222Z,15.70
2018-05-29T02:57:33.661Z,15.40
2018-05-29T03:00:01.104Z,15.30
2018-05-29T03:02:28.546Z,14.90
2018-05-29T03:04:55.992Z,15.00
2018-05-29T03:07:23.430Z,15.60
2018-05-29T03:09:50.860Z,15.30
2018-05-29T03:12:18.691Z,15.30
2018-05-29T03:14:46.116Z,15.10
2018-05-29T03:17:13.553Z,15.50
2018-05-29T03:19:41.759Z,15.50
2018-05-29T03:22:09.199Z,15.20
2018-05-29T03:24:37.019Z,15.60
2018-05-29T03:27:04.447Z,15.60
2018-05-29T03:29:31.894Z,15.20
2018-05-29T03:31:59.323Z,16.00
2018-05-29T03:34:27.527Z,15.50
2018-05-29T03:36:54.965Z,15.10
2018-05-29T03:39:22.400Z,15.40
2018-05-29T03:41:50.607Z,15.50
2018-05-29T03:44:18.035Z,15.50
2018-05-29T03:46:46.242Z,15.60
2018-05-29T03:49:14.442Z,15.60
2018-05-29T03:51:41.888Z,15.30
2018-05-29T03:54:09.366Z,15.80
2018-05-29T03:56:36.795Z,15.90
2018-05-29T03:59:04.622Z,15.80
2018-05-29T04:01:32.072Z,16.00
2018-05-29T04:04:00.273Z,16.10
2018-05-29T04:06:27.718Z,16.10
2018-05-29T04:08:55.159Z,16.20
2018-05-29T04:11:23.360Z,16.30
2018-05-29T04:13:50.790Z,16.40
2018-05-29T04:16:18.989Z,16.40
2018-05-29T04:18:46.420Z,16.30
2018-05-29T04:21:14.608Z,16.40
2018-05-29T04:23:42.047Z,16.70
2018-05-29T04:26:10.248Z,16.80
2018-05-29T04:28:38.067Z,17.00
2018-05-29T04:31:05.500Z,16.80
2018-05-29T04:33:33.291Z,16.80
2018-05-29T04:36:01.496Z,16.60
2018-05-29T04:38:28.944Z,16.50
2018-05-29T04:40:56.762Z,16.50
2018-05-29T04:43:24.966Z,16.20
2018-05-29T04:45:53.159Z,16.20
2018-05-29T04:48:20.595Z,16.40
2018-05-29T04:50:48.802Z,16.40
2018-05-29T04:53:16.227Z,16.70
2018-05-29T04:55:44.435Z,16.40
2018-05-29T04:58:11.873Z,16.40
2018-05-29T05:00:39.700Z,16.40
2018-05-29T05:03:07.525Z,16.40
2018-05-29T05:05:35.724Z,16.40
2018-05-29T05:08:03.163Z,16.90
2018-05-29T05:10:30.609Z,17.00
2018-05-29T05:12:58.431Z,17.70
2018-05-29T05:15:25.863Z,18.00
2018-05-29T05:17:53.303Z,17.70
2018-05-29T05:20:20.744Z,18.30
2018-05-29T05:22:48.576Z,18.70
2018-05-29T05:25:16.399Z,19.30
2018-05-29T05:27:43.848Z,20.30
2018-05-29T05:30:11.282Z,20.60
2018-05-29T05:32:38.733Z,20.10
2018-05-29T05:35:06.159Z,20.60
2018-05-29T05:37:34.413Z,20.70
2018-05-29T05:40:02.236Z,20.80
2018-05-29T05:42:30.819Z,20.80
2018-05-29T05:44:58.642Z,21.10
2018-05-29T05:47:26.883Z,21.40
2018-05-29T05:49:54.722Z,21.60
2018-05-29T05:52:22.167Z,21.10
2018-05-29T05:54:49.596Z,21.00
2018-05-29T05:57:17.834Z,21.00
2018-05-29T05:59:45.277Z,20.80
2018-05-29T06:02:12.716Z,21.60
2018-05-29T06:04:40.154Z,22.40
2018-05-29T06:07:07.978Z,22.80
2018-05-29T06:09:35.431Z,23.90
2018-05-29T06:12:02.864Z,23.90
2018-05-29T06:14:30.310Z,25.20
2018-05-29T06:16:57.756Z,25.70
2018-05-29T06:19:25.966Z,24.60
2018-05-29T06:21:53.397Z,25.60
2018-05-29T06:24:20.896Z,24.60
2018-05-29T06:26:48.294Z,25.00
2018-05-29T06:29:15.746Z,25.40
2018-05-29T06:31:43.182Z,24.60
2018-05-29T06:34:11.395Z,25.50
2018-05-29T06:36:39.226Z,26.00
2018-05-29T06:39:07.442Z,27.10
2018-05-29T06:41:34.882Z,27.10
2018-05-29T06:44:02.346Z,27.30
2018-05-29T06:46:29.775Z,27.60
2018-05-29T06:48:57.981Z,26.60
2018-05-29T06:51:25.427Z,27.80
2018-05-29T06:53:52.861Z,27.30
2018-05-29T06:56:20.305Z,27.50
2018-05-29T06:58:47.739Z,26.80
2018-05-29T07:01:15.185Z,27.00
2018-05-29T07:03:42.619Z,26.90
2018-05-29T07:06:10.458Z,27.20
2018-05-29T07:08:37.904Z,27.20
2018-05-29T07:11:06.108Z,27.50
2018-05-29T07:13:33.591Z,27.60
2018-05-29T07:16:01.031Z,27.50
2018-05-29T07:18:28.478Z,27.00
2018-05-29T07:20:55.921Z,25.80
2018-05-29T07:23:23.387Z,25.90
2018-05-29T07:25:50.860Z,26.50
2018-05-29T07:28:18.274Z,25.00
2018-05-29T07:30:45.718Z,24.80
2018-05-29T07:33:13.935Z,24.80
2018-05-29T07:35:41.387Z,24.60
2018-05-29T07:38:08.831Z,24.30
2018-05-29T07:40:36.666Z,24.70
2018-05-29T07:43:04.500Z,25.20
2018-05-29T07:45:31.995Z,25.00
2018-05-29T07:48:00.216Z,25.10
2018-05-29T07:50:27.723Z,25.10
2018-05-29T07:52:55.543Z,26.20
2018-05-29T07:55:22.988Z,26.00
2018-05-29T07:57:50.430Z,26.10
2018-05-29T08:00:17.867Z,26.80
2018-05-29T08:02:46.078Z,27.10
2018-05-29T08:05:13.576Z,27.10
2018-05-29T08:07:41.015Z,27.40
2018-05-29T08:10:08.480Z,27.70
2018-05-29T08:12:36.819Z,27.30
2018-05-29T08:15:04.261Z,26.70
2018-05-29T08:17:31.690Z,26.60
2018-05-29T08:19:59.896Z,26.70
2018-05-29T08:22:27.385Z,26.90
2018-05-29T08:24:54.855Z,26.90
2018-05-29T08:27:22.301Z,27.10
2018-05-29T08:29:49.863Z,26.70
2018-05-29T08:32:17.310Z,26.90
2018-05-29T08:34:44.766Z,27.00
2018-05-29T08:37:12.217Z,27.20
2018-05-29T08:39:39.666Z,27.10
2018-05-29T08:42:07.103Z,26.90
2018-05-29T08:44:35.384Z,26.30
2018-05-29T08:47:02.820Z,26.30
2018-05-29T08:49:30.261Z,25.50
2018-05-29T08:51:58.469Z,25.70
2018-05-29T08:54:25.927Z,25.90
2018-05-29T08:56:53.402Z,26.20
2018-05-29T08:59:21.563Z,26.40
2018-05-29T09:01:48.996Z,25.80
2018-05-29T09:04:16.467Z,25.60
2018-05-29T09:06:44.259Z,25.90
2018-05-29T09:09:11.707Z,25.90
2018-05-29T09:11:39.196Z,25.30
2018-05-29T09:14:06.630Z,25.20
2018-05-29T09:16:34.062Z,24.50
2018-05-29T09:19:01.496Z,25.20
2018-05-29T09:21:29.702Z,25.60
2018-05-29T09:23:57.148Z,25.50
2018-05-29T09:26:24.592Z,26.30
2018-05-29T09:28:52.020Z,27.00
2018-05-29T09:31:20.226Z,28.50
2018-05-29T09:33:47.653Z,28.30
2018-05-29T09:36:15.096Z,28.50
2018-05-29T09:38:42.528Z,28.00
2018-05-29T09:41:09.961Z,27.40
2018-05-29T09:43:37.441Z,27.10
2018-05-29T09:46:05.030Z,26.30
2018-05-29T09:48:32.462Z,26.10
2018-05-29T09:50:59.907Z,26.40
2018-05-29T09:53:27.330Z,26.60
2018-05-29T09:55:54.779Z,27.40
2018-05-29T09:58:22.210Z,27.80
2018-05-29T10:00:50.417Z,27.60
2018-05-29T10:03:17.853Z,27.10
2018-05-29T10:05:46.062Z,27.50
2018-05-29T10:08:13.507Z,27.60
2018-05-29T10:10:40.940Z,27.60
2018-05-29T10:13:09.144Z,27.50
2018-05-29T10:15:36.568Z,27.60
2018-05-29T10:18:04.762Z,28.80
2018-05-29T10:20:32.195Z,28.90
2018-05-29T10:22:59.618Z,28.70
2018-05-29T10:25:27.058Z,28.40
2018-05-29T10:27:54.484Z,27.40
2018-05-29T10:30:21.922Z,27.20
2018-05-29T10:32:50.129Z,27.00
2018-05-29T10:35:17.581Z,27.60
2018-05-29T10:37:45.016Z,27.00
2018-05-29T10:40:13.231Z,27.10
2018-05-29T10:42:40.676Z,27.80
2018-05-29T10:45:08.121Z,27.80
2018-05-29T10:47:35.560Z,27.20
2018-05-29T10:50:02.983Z,27.60
2018-05-29T10:52:30.491Z,28.20
2018-05-29T10:54:57.872Z,27.70
2018-05-29T10:57:25.312Z,27.80
2018-05-29T10:59:52.747Z,27.30
2018-05-29T11:02:20.198Z,27.60
2018-05-29T11:04:47.623Z,27.50
2018-05-29T11:07:15.077Z,27.50
2018-05-29T11:09:43.274Z,27.70
2018-05-29T11:12:10.707Z,27.70
2018-05-29T11:14:38.142Z,27.70
2018-05-29T11:17:05.583Z,27.70
2018-05-29T11:19:33.020Z,27.50
2018-05-29T11:22:00.451Z,27.60
2018-05-29T11:24:28.649Z,27.00
2018-05-29T11:26:56.090Z,27.70
2018-05-29T11:29:24.301Z,27.20
2018-05-29T11:31:51.734Z,27.40
2018-05-29T11:34:19.159Z,27.60
2018-05-29T11:36:47.378Z,27.90
2018-05-29T11:39:14.827Z,28.20
2018-05-29T11:41:42.281Z,27.70
2018-05-29T11:44:09.722Z,27.70
2018-05-29T11:46:37.164Z,27.30
2018-05-29T11:49:04.594Z,27.20
2018-05-29T11:51:32.034Z,27.50
2018-05-29T11:53:59.475Z,28.30
2018-05-29T11:56:26.918Z,28.40
2018-05-29T11:58:54.350Z,28.70
2018-05-29T12:01:21.787Z,28.30
2018-05-29T12:03:49.624Z,28.90
2018-05-29T12:06:17.075Z,29.50
2018-05-29T12:08:44.519Z,29.70
2018-05-29T12:11:11.978Z,28.40
2018-05-29T12:13:39.419Z,28.40
2018-05-29T12:16:06.872Z,27.30
2018-05-29T12:18:34.299Z,27.40
2018-05-29T12:21:02.516Z,27.10
2018-05-29T12:23:29.946Z,27.70
2018-05-29T12:25:57.779Z,27.90
2018-05-29T12:28:25.215Z,28.20
2018-05-29T12:30:52.651Z,27.50
2018-05-29T12:33:21.231Z,27.50
2018-05-29T12:35:48.678Z,27.50
2018-05-29T12:38:16.510Z,27.70
2018-05-29T12:40:44.716Z,28.10
2018-05-29T12:43:12.923Z,27.90
2018-05-29T12:45:41.889Z,27.60
2018-05-29T12:48:09.336Z,27.70
2018-05-29T12:50:36.768Z,27.50
2018-05-29T12:53:04.971Z,27.40
2018-05-29T12:55:32.400Z,27.30
2018-05-29T12:57:59.857Z,27.10
2018-05-29T13:00:27.291Z,26.90
2018-05-29T13:02:54.726Z,26.80
2018-05-29T13:05:22.198Z,26.60
2018-05-29T13:07:49.607Z,26.90
2018-05-29T13:10:17.040Z,26.70
2018-05-29T13:12:44.476Z,27.10
2018-05-29T13:15:12.299Z,26.50
2018-05-29T13:17:40.151Z,26.20
2018-05-29T13:20:08.343Z,26.10
2018-05-29T13:22:35.784Z,26.10
2018-05-29T13:25:03.981Z,25.80
2018-05-29T13:27:31.435Z,25.60
2018-05-29T13:29:58.883Z,25.80
2018-05-29T13:32:27.078Z,26.20
2018-05-29T13:34:54.904Z,26.00
2018-05-29T13:37:22.338Z,26.00
2018-05-29T13:39:50.170Z,26.20
2018-05-29T13:42:17.611Z,25.90
2018-05-29T13:44:45.034Z,25.80
2018-05-29T13:47:12.475Z,25.60
2018-05-29T13:49:39.898Z,25.40
2018-05-29T13:52:07.347Z,25.40
2018-05-29T13:54:34.777Z,25.50
2018-05-29T13:57:02.210Z,24.70
2018-05-29T13:59:29.635Z,24.60
2018-05-29T14:01:57.843Z,24.80
2018-05-29T14:04:25.299Z,24.20
2018-05-29T14:06:52.730Z,24.10
2018-05-29T14:09:20.567Z,24.20
2018-05-29T14:11:48.009Z,23.90
2018-05-29T14:14:16.205Z,23.60
2018-05-29T14:16:44.034Z,23.50
2018-05-29T14:19:11.485Z,23.20
2018-05-29T14:21:38.928Z,23.10
2018-05-29T14:24:06.378Z,22.60
2018-05-29T14:26:33.803Z,22.90
2018-05-29T14:29:01.634Z,22.80
2018-05-29T14:31:29.075Z,22.60
2018-05-29T14:33:56.515Z,22.60
2018-05-29T14:36:23.936Z,22.50
2018-05-29T14:38:52.146Z,22.40
2018-05-29T14:41:19.601Z,22.40
2018-05-29T14:43:47.107Z,22.30
2018-05-29T14:46:14.851Z,22.20
2018-05-29T14:48:42.285Z,22.10
2018-05-29T14:51:09.723Z,21.90
2018-05-29T14:53:37.167Z,22.00
2018-05-29T14:56:04.987Z,22.70
2018-05-29T14:58:32.432Z,21.90
2018-05-29T15:00:59.855Z,21.50
2018-05-29T15:03:27.286Z,21.80
2018-05-29T15:05:55.496Z,21.70
2018-05-29T15:08:23.328Z,21.60
2018-05-29T15:10:51.525Z,21.70
2018-05-29T15:13:18.957Z,21.90
2018-05-29T15:15:46.778Z,21.60
2018-05-29T15:18:14.218Z,21.70
2018-05-29T15:20:41.653Z,21.90
2018-05-29T15:23:09.085Z,21.90
2018-05-29T15:25:36.510Z,21.90
2018-05-29T15:28:03.946Z,22.00
2018-05-29T15:30:31.398Z,22.40
2018-05-29T15:32:58.818Z,21.90
2018-05-29T15:35:27.021Z,21.70
2018-05-29T15:37:54.462Z,21.80
2018-05-29T15:40:21.903Z,21.80
2018-05-29T15:42:50.095Z,21.70
2018-05-29T15:45:17.923Z,21.70
2018-05-29T15:47:45.350Z,22.10
2018-05-29T15:50:12.787Z,21.50
2018-05-29T15:52:40.987Z,21.90
2018-05-29T15:55:08.431Z,21.80
2018-05-29T15:57:36.267Z,22.60
2018-05-29T16:00:03.720Z,22.60
2018-05-29T16:02:31.153Z,22.50
2018-05-29T16:04:59.351Z,22.70
2018-05-29T16:07:26.791Z,22.60
2018-05-29T16:09:54.215Z,22.90
2018-05-29T16:12:22.059Z,22.70
2018-05-29T16:14:49.507Z,22.50
2018-05-29T16:17:16.942Z,22.40
2018-05-29T16:19:44.384Z,22.30
2018-05-29T16:22:12.211Z,22.30
2018-05-29T16:24:40.044Z,22.30
2018-05-29T16:27:08.243Z,22.40
2018-05-29T16:29:36.451Z,22.50
2018-05-29T16:32:04.647Z,22.50
2018-05-29T16:34:32.141Z,22.30
2018-05-29T16:37:00.276Z,22.50
2018-05-29T16:39:27.720Z,22.90
2018-05-29T16:41:55.906Z,22.40
2018-05-29T16:44:23.346Z,22.90
2018-05-29T16:46:51.559Z,22.40
2018-05-29T16:49:19.006Z,22.10
2018-05-29T16:51:46.428Z,22.50
2018-05-29T16:54:15.474Z,22.20
2018-05-29T16:56:42.911Z,22.20
2018-05-29T16:59:10.339Z,22.20
2018-05-29T17:01:38.550Z,22.10
2018-05-29T17:04:05.992Z,22.10
2018-05-29T17:06:33.418Z,22.20
2018-05-29T17:09:01.619Z,22.30
2018-05-29T17:11:29.038Z,22.30
2018-05-29T17:13:57.256Z,22.20
2018-05-29T17:16:24.690Z,22.20
2018-05-29T17:18:52.118Z,22.10
2018-05-29T17:21:19.555Z,22.20
2018-05-29T17:23:46.983Z,22.10
2018-05-29T17:26:14.436Z,22.20
2018-05-29T17:28:41.858Z,22.10
2018-05-29T17:31:10.068Z,22.10
2018-05-29T17:33:37.494Z,22.10
2018-05-29T17:36:05.703Z,22.00
2018-05-29T17:38:33.138Z,22.00
2018-05-29T17:41:00.579Z,22.00
2018-05-29T17:43:28.783Z,21.90
2018-05-29T17:45:56.222Z,21.90
2018-05-29T17:48:23.658Z,22.00
2018-05-29T17:50:51.867Z,21.90
2018-05-29T17:53:19.297Z,21.90
2018-05-29T17:55:47.501Z,21.90
2018-05-29T17:58:14.953Z,21.90
2018-05-29T18:00:42.413Z,21.90
2018-05-29T18:03:10.632Z,21.90
2018-05-29T18:05:38.845Z,21.90
2018-05-29T18:08:06.332Z,21.80
2018-05-29T18:10:34.503Z,21.80
2018-05-29T18:13:01.939Z,21.90
2018-05-29T18:15:29.370Z,21.80
2018-05-29T18:17:57.574Z,21.70
2018-05-29T18:20:25.008Z,21.70
2018-05-29T18:22:52.448Z,21.70
2018-05-29T18:25:20.648Z,21.60
2018-05-29T18:27:48.093Z,21.60
2018-05-29T18:30:15.517Z,21.60
2018-05-29T18:32:42.947Z,21.60
2018-05-29T18:35:10.392Z,21.60
2018-05-29T18:37:37.833Z,21.50
2018-05-29T18:40:05.290Z,21.30
2018-05-29T18:42:32.715Z,21.30
2018-05-29T18:45:00.925Z,21.30
2018-05-29T18:47:28.353Z,21.30
2018-05-29T18:49:56.638Z,21.20
2018-05-29T18:52:24.015Z,21.20
2018-05-29T18:54:51.467Z,21.20
2018-05-29T18:57:18.903Z,20.90
2018-05-29T18:59:46.335Z,20.80
2018-05-29T19:02:14.564Z,20.70
2018-05-29T19:04:42.003Z,20.60
2018-05-29T19:07:09.442Z,20.60
2018-05-29T19:09:36.878Z,20.50
2018-05-29T19:12:04.306Z,20.50
2018-05-29T19:14:31.739Z,20.60
2018-05-29T19:16:59.258Z,20.50
2018-05-29T19:19:26.619Z,20.60
2018-05-29T19:21:54.835Z,20.60
2018-05-29T19:24:22.263Z,20.60
2018-05-29T19:26:49.702Z,20.60
2018-05-29T19:29:17.905Z,20.40
2018-05-29T19:31:45.330Z,19.90
2018-05-29T19:34:13.794Z,19.90
2018-05-29T19:36:41.215Z,19.80
2018-05-29T19:39:08.651Z,19.60
2018-05-29T19:41:36.878Z,19.40
2018-05-29T19:44:04.301Z,19.30
2018-05-29T19:46:31.738Z,19.30
2018-05-29T19:48:59.163Z,19.30
2018-05-29T19:51:27.366Z,19.20
2018-05-29T19:53:54.844Z,19.20
2018-05-29T19:56:22.278Z,19.30
2018-05-29T19:58:49.715Z,19.30
2018-05-29T20:01:17.941Z,19.30
2018-05-29T20:03:45.344Z,19.30
2018-05-29T20:06:12.784Z,19.20
2018-05-29T20:08:40.982Z,18.90
2018-05-29T20:11:08.421Z,18.80
2018-05-29T20:13:36.631Z,18.70
2018-05-29T20:16:05.207Z,18.50
2018-05-29T20:18:32.643Z,18.60
2018-05-29T20:21:00.087Z,18.60
2018-05-29T20:23:27.920Z,18.20
2018-05-29T20:25:55.352Z,18.30
2018-05-29T20:28:23.935Z,18.20
2018-05-29T20:30:51.367Z,18.10
2018-05-29T20:33:18.808Z,17.90
2018-05-29T20:35:47.008Z,18.00
2018-05-29T20:38:14.454Z,18.00
2018-05-29T20:40:41.883Z,17.90
2018-05-29T20:43:10.089Z,17.90
2018-05-29T20:45:37.526Z,17.90
2018-05-29T20:48:04.963Z,18.00
2018-05-29T20:50:33.168Z,18.10
2018-05-29T20:53:00.607Z,18.10
2018-05-29T20:55:28.798Z,18.00
2018-05-29T20:57:56.239Z,17.50
2018-05-29T21:00:23.672Z,17.60
2018-05-29T21:02:51.107Z,17.60
2018-05-29T21:05:18.547Z,17.50
2018-05-29T21:07:45.974Z,17.60
2018-05-29T21:10:13.401Z,17.40
2018-05-29T21:12:40.834Z,17.40
2018-05-29T21:15:08.655Z,17.10
2018-05-29T21:17:36.498Z,17.40
2018-05-29T21:20:04.694Z,17.40
2018-05-29T21:22:32.117Z,17.10
2018-05-29T21:25:00.330Z,17.30
2018-05-29T21:27:27.754Z,17.70
2018-05-29T21:29:55.971Z,17.20
2018-05-29T21:32:23.421Z,17.10
2018-05-29T21:34:50.847Z,16.60
2018-05-29T21:37:19.055Z,17.00
2018-05-29T21:39:46.871Z,16.60
2018-05-29T21:42:15.378Z,16.90
2018-05-29T21:44:42.807Z,16.90
2018-05-29T21:47:10.243Z,16.70
2018-05-29T21:49:38.450Z,16.90
2018-05-29T21:52:05.875Z,16.90
2018-05-29T21:54:33.306Z,16.50
2018-05-29T21:57:01.503Z,16.80
2018-05-29T21:59:28.946Z,16.40
2018-05-29T22:01:56.386Z,16.80
2018-05-29T22:04:23.815Z,16.90
2018-05-29T22:06:51.242Z,17.20
2018-05-29T22:09:18.682Z,16.80
2018-05-29T22:11:46.123Z,16.70
2018-05-29T22:14:13.833Z,16.60
2018-05-29T22:16:41.258Z,16.70
2018-05-29T22:19:08.708Z,16.30
2018-05-29T22:21:36.144Z,16.60
2018-05-29T22:24:03.579Z,16.50
2018-05-29T22:26:31.002Z,16.50
2018-05-29T22:28:59.219Z,16.40
2018-05-29T22:31:27.461Z,16.40
2018-05-29T22:33:55.657Z,16.40
2018-05-29T22:36:23.089Z,16.20
2018-05-29T22:38:50.919Z,15.90
2018-05-29T22:41:18.348Z,16.30
2018-05-29T22:43:45.818Z,15.90
2018-05-29T22:46:13.263Z,16.00
2018-05-29T22:48:41.085Z,16.00
2018-05-29T22:51:09.293Z,16.10
2018-05-29T22:53:36.726Z,16.10
2018-05-29T22:56:04.567Z,16.30
2018-05-29T22:58:32.002Z,15.90
2018-05-29T23:00:59.440Z,16.00
2018-05-29T23:03:26.886Z,16.10
2018-05-29T23:05:54.345Z,16.00
2018-05-29T23:08:22.536Z,16.40
2018-05-29T23:10:49.972Z,16.40
2018-05-29T23:13:17.417Z,16.60
2018-05-29T23:15:44.866Z,16.40
2018-05-29T23:18:12.302Z,16.30
2018-05-29T23:20:40.521Z,16.30
2018-05-29T23:23:07.956Z,16.30
2018-05-29T23:25:35.385Z,16.30
2018-05-29T23:28:03.947Z,16.10
2018-05-29T23:30:31.398Z,16.20
2018-05-29T23:32:58.840Z,16.10
2018-05-29T23:35:26.266Z,15.90
2018-05-29T23:37:53.711Z,15.80
2018-05-29T23:40:21.539Z,15.80
2018-05-29T23:42:50.496Z,15.80
2018-05-29T23:45:18.694Z,15.90
2018-05-29T23:47:46.131Z,16.00
2018-05-29T23:50:13.964Z,16.20
2018-05-29T23:52:41.787Z,16.10
2018-05-29T23:55:09.231Z,15.80
2018-05-29T23:57:37.433Z,15.70
